Time;durP1;ratioP1;P1;durP2;ratioP2;P2;SDS_P1;SDS_P2;PMS_P1;PMS_P2;Temp;Humidity;BMP_temperature;BMP_pressure;BME280_temperature;BME280_humidity;BME280_pressure;Samples;Min_cycle;Max_cycle;Signal;HPM_P1;HPM_P2
2022/12/28 00:00:21;;;;;;;1999.90;999.90;;;9.40;99.90;;;;;;5053733;28;20033;-72
2022/12/28 00:02:47;;;;;;;1999.90;999.90;;;9.40;99.90;;;;;;5053379;28;20059;-72
2022/12/28 00:05:13;;;;;;;1999.90;999.90;;;9.50;99.90;;;;;;5053055;28;20057;-74
2022/12/28 00:07:38;;;;;;;1999.90;999.90;;;9.50;99.90;;;;;;5053461;28;20033;-72
2022/12/28 00:10:04;;;;;;;1999.90;999.90;;;9.50;99.90;;;;;;5053415;28;20104;-72
2022/12/28 00:12:31;;;;;;;1999.90;999.90;;;9.50;99.90;;;;;;5052556;28;20033;-72
2022/12/28 00:14:58;;;;;;;1999.90;999.90;;;9.60;99.90;;;;;;5053259;28;20021;-74
2022/12/28 00:17:23;;;;;;;1999.90;999.90;;;9.60;99.90;;;;;;5047992;28;20040;-74
2022/12/28 00:19:49;;;;;;;1999.90;999.90;;;9.70;99.90;;;;;;5053039;28;20029;-72
2022/12/28 00:22:14;;;;;;;1999.90;999.90;;;10.10;99.90;;;;;;5052982;28;20021;-75
2022/12/28 00:24:40;;;;;;;1999.90;999.90;;;10.10;99.90;;;;;;5053008;28;20021;-72
2022/12/28 00:27:06;;;;;;;1999.90;999.90;;;10.10;99.90;;;;;;5051183;28;20127;-72
2022/12/28 00:29:31;;;;;;;1999.90;999.90;;;10.10;99.90;;;;;;5052891;28;20036;-72
2022/12/28 00:31:57;;;;;;;1999.90;999.90;;;10.10;99.90;;;;;;5052584;28;20086;-74
2022/12/28 00:34:23;;;;;;;1999.90;999.90;;;10.10;99.90;;;;;;5051593;28;20035;-74
2022/12/28 00:36:52;;;;;;;1999.90;999.90;;;10.10;99.90;;;;;;5052801;28;20029;-74
2022/12/28 00:39:19;;;;;;;1999.90;999.90;;;10.10;99.90;;;;;;5052602;28;20431;-74
2022/12/28 00:41:45;;;;;;;1999.90;999.90;;;10.10;99.90;;;;;;5052428;28;20029;-72
2022/12/28 00:44:10;;;;;;;1999.90;999.90;;;10.20;99.90;;;;;;5052850;28;20020;-72
2022/12/28 00:46:36;;;;;;;1999.90;999.90;;;10.20;99.90;;;;;;5052431;28;20468;-73
2022/12/28 00:49:02;;;;;;;1999.90;999.90;;;10.10;99.90;;;;;;5052333;28;20021;-72
2022/12/28 00:51:28;;;;;;;1999.90;999.90;;;10.10;99.90;;;;;;5052129;28;20029;-73
2022/12/28 00:53:53;;;;;;;1999.90;999.90;;;10.00;99.90;;;;;;5052638;28;20017;-74
2022/12/28 00:56:21;;;;;;;1999.90;999.90;;;10.00;99.90;;;;;;5052590;28;20499;-72
2022/12/28 00:58:46;;;;;;;1999.90;999.90;;;10.00;99.90;;;;;;5052502;28;20036;-72
2022/12/28 01:01:22;;;;;;;1999.90;999.90;;;10.00;99.90;;;;;;5052198;28;20032;-72
2022/12/28 01:03:48;;;;;;;1999.90;999.90;;;10.00;99.90;;;;;;5049378;28;20511;-73
2022/12/28 01:06:16;;;;;;;1999.90;999.90;;;10.00;99.90;;;;;;5050347;28;20029;-71
2022/12/28 01:08:43;;;;;;;1999.90;999.90;;;10.00;99.90;;;;;;5052379;28;20496;-72
2022/12/28 01:11:15;;;;;;;1999.90;999.90;;;10.00;99.90;;;;;;5052082;28;20530;-73
2022/12/28 01:13:40;;;;;;;1999.90;999.90;;;10.00;99.90;;;;;;5052040;28;20047;-72
2022/12/28 01:16:15;;;;;;;1999.90;999.90;;;10.00;99.90;;;;;;5046474;28;20100;-72
2022/12/28 01:18:41;;;;;;;1999.90;999.90;;;10.10;99.90;;;;;;5052145;28;20086;-72
2022/12/28 01:21:12;;;;;;;1999.90;999.90;;;10.00;99.90;;;;;;5050377;28;20056;-72
2022/12/28 01:23:38;;;;;;;1999.90;999.90;;;10.00;99.90;;;;;;5051031;28;20017;-72
2022/12/28 01:26:04;;;;;;;1999.90;999.90;;;9.90;99.90;;;;;;5051653;28;20020;-73
2022/12/28 01:28:29;;;;;;;1999.90;999.90;;;9.90;99.90;;;;;;5050755;28;20443;-72
2022/12/28 01:30:55;;;;;;;1999.90;999.90;;;9.80;99.90;;;;;;5051525;28;20029;-72
2022/12/28 01:33:21;;;;;;;1999.90;999.90;;;9.80;99.90;;;;;;5051795;28;20144;-72
2022/12/28 01:35:46;;;;;;;1999.90;999.90;;;9.80;99.90;;;;;;5050605;28;20448;-74
2022/12/28 01:38:12;;;;;;;1999.90;999.90;;;9.70;99.90;;;;;;5051643;28;20116;-73
2022/12/28 01:40:41;;;;;;;1999.90;999.90;;;9.70;99.90;;;;;;5052143;28;20070;-71
2022/12/28 01:43:13;;;;;;;1999.90;999.90;;;9.60;99.90;;;;;;5052138;28;20036;-72
2022/12/28 01:45:39;;;;;;;1999.90;999.90;;;9.60;99.90;;;;;;5051840;28;20570;-72
2022/12/28 01:48:15;;;;;;;1999.90;999.90;;;9.60;99.90;;;;;;5052001;28;20037;-71
2022/12/28 01:50:43;;;;;;;1999.90;999.90;;;9.50;99.90;;;;;;5051957;28;20025;-74
2022/12/28 01:53:09;;;;;;;1999.90;999.90;;;9.50;99.90;;;;;;5051933;28;20033;-72
2022/12/28 01:55:38;;;;;;;1999.90;999.90;;;9.50;99.90;;;;;;5051918;28;20036;-74
2022/12/28 01:58:09;;;;;;;1999.90;999.90;;;9.50;99.90;;;;;;5051311;28;20040;-72
2022/12/28 02:00:35;;;;;;;1999.90;999.90;;;9.50;99.90;;;;;;5052006;28;20392;-72
2022/12/28 02:03:09;;;;;;;1999.90;999.90;;;9.40;99.90;;;;;;5051829;28;20032;-73
2022/12/28 02:05:41;;;;;;;1999.90;999.90;;;9.40;99.90;;;;;;5051439;28;20103;-74
2022/12/28 02:08:28;;;;;;;1999.90;999.90;;;9.40;99.90;;;;;;5051789;28;20028;-72
2022/12/28 02:10:54;;;;;;;1999.90;999.90;;;9.40;99.90;;;;;;5051506;28;20029;-71
2022/12/28 02:13:22;;;;;;;1999.90;999.90;;;9.40;99.90;;;;;;5051207;28;20071;-74
2022/12/28 02:15:49;;;;;;;1999.90;999.90;;;9.40;99.90;;;;;;5046129;28;20484;-73
2022/12/28 02:18:16;;;;;;;1999.90;999.90;;;9.40;99.90;;;;;;5051632;28;20560;-73
2022/12/28 02:20:54;;;;;;;1999.90;999.90;;;9.30;99.90;;;;;;5051471;28;20064;-71
2022/12/28 02:23:56;;;;;;;1999.90;999.90;;;9.30;99.90;;;;;;5051251;28;20029;-73
2022/12/28 02:26:55;;;;;;;1999.90;999.90;;;9.30;99.90;;;;;;5028943;28;20508;-72
2022/12/28 02:29:58;;;;;;;1999.90;999.90;;;9.20;99.90;;;;;;5051327;28;20112;-72
2022/12/28 02:32:27;;;;;;;1999.90;999.90;;;9.20;99.90;;;;;;5026873;28;20044;-71
2022/12/28 02:34:56;;;;;;;1999.90;999.90;;;9.20;99.90;;;;;;5032802;28;20026;-73
2022/12/28 02:37:26;;;;;;;1999.90;999.90;;;9.20;99.90;;;;;;5035096;28;20030;-72
2022/12/28 02:40:00;;;;;;;1999.90;999.90;;;9.20;99.90;;;;;;5034982;28;20040;-71
2022/12/28 02:42:27;;;;;;;1999.90;999.90;;;9.10;99.90;;;;;;5034734;28;20105;-73
2022/12/28 02:50:57;;;;;;;1999.90;999.90;;;9.10;99.90;;;;;;5054801;28;20098;-72
2022/12/28 02:54:03;;;;;;;1999.90;999.90;;;9.10;99.90;;;;;;5038616;28;20440;-72
2022/12/28 02:56:54;;;;;;;1999.90;999.90;;;9.00;99.90;;;;;;5012471;28;20164;-71
2022/12/28 02:59:29;;;;;;;1999.90;999.90;;;9.00;99.90;;;;;;5054558;28;20028;-72
2022/12/28 03:02:00;;;;;;;1999.90;999.90;;;9.10;99.90;;;;;;5054609;28;20025;-72
2022/12/28 03:04:48;;;;;;;1999.90;999.90;;;9.00;99.90;;;;;;5054537;28;20416;-71
2022/12/28 03:10:24;;;;;;;1999.90;999.90;;;9.10;99.90;;;;;;5054708;28;20113;-73
2022/12/28 03:12:59;;;;;;;1999.90;999.90;;;9.10;99.90;;;;;;5054105;28;20033;-71
2022/12/28 03:15:29;;;;;;;1999.90;999.90;;;9.10;99.90;;;;;;5051865;28;20025;-71
2022/12/28 03:32:06;;;;;;;1999.90;999.90;;;9.00;99.90;;;;;;5054035;28;20515;-74
2022/12/28 03:34:32;;;;;;;1999.90;999.90;;;9.00;99.90;;;;;;5054156;28;20107;-71
2022/12/28 03:37:04;;;;;;;1999.90;999.90;;;9.00;99.90;;;;;;5052632;28;20036;-74
2022/12/28 03:39:49;;;;;;;1999.90;999.90;;;9.00;99.90;;;;;;5053909;28;20025;-71
2022/12/28 03:45:45;;;;;;;1999.90;999.90;;;9.00;99.90;;;;;;5053737;28;20044;-73
2022/12/28 03:48:11;;;;;;;;;;;9.00;99.90;;;;;;5051542;28;20044;-73
2022/12/28 03:50:41;;;;;;;1999.90;999.90;;;9.00;99.90;;;;;;5053655;28;19905;-71
2022/12/28 03:53:07;;;;;;;1999.90;999.90;;;9.00;99.90;;;;;;5035716;28;20496;-71
2022/12/28 03:55:36;;;;;;;1999.90;999.90;;;8.90;99.90;;;;;;5053464;28;20100;-71
2022/12/28 03:58:03;;;;;;;1999.90;999.90;;;9.00;99.90;;;;;;5053456;28;20396;-71
2022/12/28 04:00:28;;;;;;;1999.90;999.90;;;9.00;99.90;;;;;;5054018;28;20098;-71
2022/12/28 04:02:54;;;;;;;1999.90;999.90;;;9.00;99.90;;;;;;5053724;28;20025;-73
2022/12/28 04:05:20;;;;;;;1999.90;999.90;;;9.00;99.90;;;;;;5053034;28;20053;-71
2022/12/28 04:07:46;;;;;;;1999.90;999.90;;;9.00;99.90;;;;;;5053268;28;20036;-73
2022/12/28 04:10:11;;;;;;;1999.90;999.90;;;9.00;99.90;;;;;;5053372;28;20029;-73
2022/12/28 04:12:37;;;;;;;1999.90;999.90;;;9.00;99.90;;;;;;5053420;28;20029;-73
2022/12/28 04:15:03;;;;;;;1999.90;999.90;;;9.00;99.90;;;;;;5053298;28;20033;-73
2022/12/28 04:17:29;;;;;;;1999.90;999.90;;;9.00;99.90;;;;;;5047411;28;20064;-71
2022/12/28 04:19:54;;;;;;;1999.90;999.90;;;9.10;99.90;;;;;;5053201;28;20469;-71
2022/12/28 04:22:20;;;;;;;1999.90;999.90;;;9.10;99.90;;;;;;5052790;28;20523;-71
2022/12/28 04:24:45;;;;;;;1999.90;999.90;;;9.10;99.90;;;;;;5052851;28;20057;-74
2022/12/28 04:27:11;;;;;;;1999.90;999.90;;;9.20;99.90;;;;;;5052554;28;20021;-72
2022/12/28 04:29:37;;;;;;;1999.90;999.90;;;9.20;99.90;;;;;;5052936;28;20029;-74
2022/12/28 04:32:02;;;;;;;1999.90;999.90;;;9.20;99.90;;;;;;5052663;28;20025;-73
2022/12/28 04:34:28;;;;;;;1999.90;999.90;;;9.10;99.90;;;;;;5053067;28;20067;-75
2022/12/28 04:36:54;;;;;;;1999.90;999.90;;;9.10;99.90;;;;;;5052490;28;20078;-71
2022/12/28 04:39:19;;;;;;;1999.90;999.90;;;9.10;99.90;;;;;;5052980;28;20039;-73
2022/12/28 04:41:45;;;;;;;1999.90;999.90;;;9.00;99.90;;;;;;5050747;28;20496;-73
2022/12/28 04:44:10;;;;;;;1999.90;999.90;;;9.10;99.90;;;;;;5052844;28;20025;-73
2022/12/28 04:46:36;;;;;;;1999.90;999.90;;;9.10;99.90;;;;;;5052729;28;20025;-72
2022/12/28 04:49:02;;;;;;;1999.90;999.90;;;9.00;99.90;;;;;;5052444;28;20506;-73
2022/12/28 04:51:28;;;;;;;1999.90;999.90;;;9.00;99.90;;;;;;5051838;28;20118;-71
2022/12/28 04:53:54;;;;;;;1999.90;999.90;;;9.00;99.90;;;;;;5052532;28;20021;-74
2022/12/28 04:56:22;;;;;;;1999.90;999.90;;;9.00;99.90;;;;;;5052423;28;20463;-72
2022/12/28 04:58:51;;;;;;;1999.90;999.90;;;9.00;99.90;;;;;;5052219;28;20024;-72
2022/12/28 05:01:18;;;;;;;1999.90;999.90;;;9.00;99.90;;;;;;5052486;28;20062;-72
2022/12/28 05:03:45;;;;;;;1999.90;999.90;;;9.00;99.90;;;;;;5052344;28;20059;-74
2022/12/28 05:06:16;;;;;;;1999.90;999.90;;;8.90;99.90;;;;;;5052139;28;20031;-74
2022/12/28 05:08:43;;;;;;;1999.90;999.90;;;8.90;99.90;;;;;;5052438;28;20033;-72
2022/12/28 05:11:20;;;;;;;1999.90;999.90;;;8.90;99.90;;;;;;5051889;28;20492;-73
2022/12/28 05:13:46;;;;;;;1999.90;999.90;;;8.90;99.90;;;;;;5052013;28;20029;-72
2022/12/28 05:16:15;;;;;;;1999.90;999.90;;;8.80;99.90;;;;;;5046990;28;20035;-75
2022/12/28 05:18:41;;;;;;;1999.90;999.90;;;8.80;99.90;;;;;;5051245;28;20029;-72
2022/12/28 05:21:12;;;;;;;1999.90;999.90;;;8.80;99.90;;;;;;5051796;28;20088;-72
2022/12/28 05:23:38;;;;;;;1999.90;999.90;;;8.80;99.90;;;;;;5052025;28;20447;-71
2022/12/28 05:26:05;;;;;;;1999.90;999.90;;;8.80;99.90;;;;;;5051360;28;20035;-72
2022/12/28 05:28:31;;;;;;;1999.90;999.90;;;8.80;99.90;;;;;;5052296;28;20025;-72
2022/12/28 05:31:02;;;;;;;1999.90;999.90;;;8.80;99.90;;;;;;5051732;28;20017;-74
2022/12/28 05:33:29;;;;;;;1999.90;999.90;;;8.80;99.90;;;;;;5048884;28;20059;-74
2022/12/28 05:35:55;;;;;;;1999.90;999.90;;;8.80;99.90;;;;;;5051627;28;20071;-74
2022/12/28 05:38:21;;;;;;;1999.90;999.90;;;8.70;99.90;;;;;;5051953;28;20035;-71
2022/12/28 05:40:46;;;;;;;1999.90;999.90;;;8.80;99.90;;;;;;5051743;28;20055;-71
2022/12/28 05:43:12;;;;;;;1999.90;999.90;;;8.80;99.90;;;;;;5051301;28;20029;-74
2022/12/28 05:45:37;;;;;;;1999.90;999.90;;;8.80;99.90;;;;;;5051563;28;20536;-71
2022/12/28 05:48:03;;;;;;;1999.90;999.90;;;8.80;99.90;;;;;;5051622;28;20036;-72
2022/12/28 05:50:29;;;;;;;1999.90;999.90;;;8.80;99.90;;;;;;5051890;28;20385;-79
2022/12/28 05:52:54;;;;;;;1999.90;999.90;;;8.90;99.90;;;;;;5051217;28;20036;-72
2022/12/28 05:55:20;;;;;;;1999.90;999.90;;;8.90;99.90;;;;;;5052072;28;20029;-74
2022/12/28 05:57:46;;;;;;;1999.90;999.90;;;8.90;99.90;;;;;;5051447;28;20032;-72
2022/12/28 06:00:12;;;;;;;1999.90;999.90;;;8.90;99.90;;;;;;5051702;28;20099;-72
2022/12/28 06:02:38;;;;;;;1999.90;999.90;;;8.90;99.90;;;;;;5051823;28;20021;-74
2022/12/28 06:05:04;;;;;;;1999.90;999.90;;;8.90;99.90;;;;;;5051189;28;20508;-72
2022/12/28 06:07:29;;;;;;;1999.90;999.90;;;8.90;99.90;;;;;;5051800;28;20107;-72
2022/12/28 06:09:55;;;;;;;1999.90;999.90;;;8.90;99.90;;;;;;5052838;28;20552;-74
2022/12/28 06:12:20;;;;;;;1999.90;999.90;;;8.90;99.90;;;;;;5055046;28;20025;-74
2022/12/28 06:14:46;;;;;;;1999.90;999.90;;;8.90;99.90;;;;;;5055510;28;20029;-74
2022/12/28 06:17:12;;;;;;;1999.90;999.90;;;8.80;99.90;;;;;;5055502;28;20732;-72
2022/12/28 06:19:37;;;;;;;1999.90;999.90;;;8.90;99.90;;;;;;5055246;28;20115;-71
2022/12/28 06:22:03;;;;;;;1999.90;999.90;;;8.90;99.90;;;;;;5055325;28;20472;-73
2022/12/28 06:24:29;;;;;;;1999.90;999.90;;;8.90;99.90;;;;;;5054945;28;20454;-74
2022/12/28 06:26:54;;;;;;;1999.90;999.90;;;9.00;99.90;;;;;;5054854;28;20117;-72
2022/12/28 06:29:20;;;;;;;1999.90;999.90;;;9.00;99.90;;;;;;5055137;28;20099;-72
2022/12/28 06:31:50;;;;;;;1999.90;999.90;;;9.10;99.90;;;;;;5054966;28;20025;-72
2022/12/28 06:34:16;;;;;;;1999.90;999.90;;;9.10;99.90;;;;;;5054905;28;20025;-72
2022/12/28 06:36:43;;;;;;;1999.90;999.90;;;9.10;99.90;;;;;;5054231;28;20040;-74
2022/12/28 06:39:11;;;;;;;1999.90;999.90;;;9.20;99.90;;;;;;5054732;28;20116;-72
2022/12/28 06:41:37;;;;;;;1999.90;999.90;;;9.20;99.90;;;;;;5053068;28;20396;-71
2022/12/28 06:44:08;;;;;;;1999.90;999.90;;;9.30;99.90;;;;;;5054951;28;20025;-72
2022/12/28 06:46:34;;;;;;;1999.90;999.90;;;9.30;99.90;;;;;;5054874;28;20017;-72
2022/12/28 06:49:00;;;;;;;1999.90;999.90;;;9.30;99.90;;;;;;5053244;28;20025;-72
2022/12/28 06:51:39;;;;;;;1999.90;999.90;;;9.30;99.90;;;;;;5054760;28;20028;-74
2022/12/28 06:54:05;;;;;;;1999.90;999.90;;;9.30;99.90;;;;;;5054189;28;20381;-74
2022/12/28 06:56:33;;;;;;;1999.90;999.90;;;9.30;99.90;;;;;;5054640;28;20047;-74
2022/12/28 06:58:59;;;;;;;1999.90;999.90;;;9.30;99.90;;;;;;5054527;28;20032;-72
2022/12/28 07:01:28;;;;;;;1999.90;999.90;;;9.40;99.90;;;;;;5054644;28;20021;-74
2022/12/28 07:03:55;;;;;;;1999.90;999.90;;;9.40;99.90;;;;;;5052907;28;20045;-74
2022/12/28 07:06:23;;;;;;;1999.90;999.90;;;9.40;99.90;;;;;;5054512;28;20027;-72
2022/12/28 07:08:49;;;;;;;1999.90;999.90;;;9.40;99.90;;;;;;5054280;28;20032;-74
2022/12/28 07:11:17;;;;;;;1999.90;999.90;;;9.40;99.90;;;;;;5054318;28;20052;-72
2022/12/28 07:13:43;;;;;;;1999.90;999.90;;;9.40;99.90;;;;;;5054052;28;20035;-74
2022/12/28 07:16:14;;;;;;;1999.90;999.90;;;9.40;99.90;;;;;;5053606;28;20104;-74
2022/12/28 07:18:40;;;;;;;1999.90;999.90;;;9.50;99.90;;;;;;5053996;28;20032;-72
2022/12/28 07:21:12;;;;;;;1999.90;999.90;;;9.50;99.90;;;;;;5052543;28;20040;-72
2022/12/28 07:23:38;;;;;;;1999.90;999.90;;;9.60;99.90;;;;;;5054074;28;20476;-74
2022/12/28 07:26:09;;;;;;;1999.90;999.90;;;9.60;99.90;;;;;;5053266;28;20037;-74
2022/12/28 07:28:45;;;;;;;1999.90;999.90;;;9.60;99.90;;;;;;5052990;28;20025;-73
2022/12/28 07:31:14;;;;;;;1999.90;999.90;;;9.60;99.90;;;;;;5050976;28;20036;-73
2022/12/28 07:33:39;;;;;;;1999.90;999.90;;;9.60;99.90;;;;;;5050463;28;20040;-73
2022/12/28 07:36:07;;;;;;;1999.90;999.90;;;9.50;99.90;;;;;;5053813;28;20028;-71
2022/12/28 07:38:33;;;;;;;1999.90;999.90;;;9.50;99.90;;;;;;5053425;28;20029;-72
2022/12/28 07:41:08;;;;;;;1999.90;999.90;;;9.50;99.90;;;;;;5055286;28;20029;-74
2022/12/28 07:43:34;;;;;;;1999.90;999.90;;;9.60;99.90;;;;;;5062264;28;20473;-74
2022/12/28 07:46:05;;;;;;;1999.90;999.90;;;9.60;99.90;;;;;;5054964;28;20143;-74
2022/12/28 07:48:31;;;;;;;1999.90;999.90;;;9.70;99.90;;;;;;5073529;28;20116;-75
2022/12/28 07:50:57;;;;;;;1999.90;999.90;;;9.70;99.90;;;;;;5057814;28;20051;-74
2022/12/28 07:53:23;;;;;;;1999.90;999.90;;;9.80;99.90;;;;;;5053074;28;20056;-74
2022/12/28 07:55:59;;;;;;;1999.90;999.90;;;9.90;99.90;;;;;;5052559;28;20044;-74
2022/12/28 07:58:25;;;;;;;1999.90;999.90;;;9.90;99.90;;;;;;5056376;28;20037;-72
2022/12/28 08:00:51;;;;;;;1999.90;999.90;;;10.00;99.90;;;;;;5045934;28;20027;-74
2022/12/28 08:03:18;;;;;;;1999.90;999.90;;;10.00;99.90;;;;;;5044646;28;20079;-74
2022/12/28 08:05:44;;;;;;;1999.90;999.90;;;10.00;99.90;;;;;;5052835;28;20365;-74
2022/12/28 08:08:09;;;;;;;1999.90;999.90;;;10.10;99.90;;;;;;5052738;28;20033;-74
2022/12/28 08:10:35;;;;;;;1999.90;999.90;;;10.10;99.90;;;;;;5050002;28;20026;-72
2022/12/28 08:13:01;;;;;;;1999.90;999.90;;;10.10;99.90;;;;;;5036938;28;20040;-73
2022/12/28 08:15:27;;;;;;;1999.90;999.90;;;10.10;99.90;;;;;;5040299;28;20028;-73
2022/12/28 08:17:54;;;;;;;1999.90;999.90;;;10.10;99.90;;;;;;5048248;28;20044;-73
2022/12/28 08:20:20;;;;;;;1999.90;999.90;;;10.10;99.90;;;;;;5052161;28;20511;-73
2022/12/28 08:22:46;;;;;;;1999.90;999.90;;;10.20;99.90;;;;;;5052248;28;20032;-73
2022/12/28 08:25:12;;;;;;;1999.90;999.90;;;10.20;99.90;;;;;;5047629;28;20393;-73
2022/12/28 08:27:38;;;;;;;1999.90;999.90;;;10.20;99.90;;;;;;5053822;28;20040;-72
2022/12/28 08:30:04;;;;;;;1999.90;999.90;;;10.30;99.90;;;;;;5052020;28;20381;-72
2022/12/28 08:32:30;;;;;;;1999.90;999.90;;;10.20;99.90;;;;;;5052052;28;20526;-73
2022/12/28 08:34:56;;;;;;;1999.90;999.90;;;10.20;99.90;;;;;;5039515;28;20056;-74
2022/12/28 08:37:21;;;;;;;1999.90;999.90;;;10.20;99.90;;;;;;5042880;28;20033;-72
2022/12/28 08:39:47;;;;;;;1999.90;999.90;;;10.20;99.90;;;;;;5052270;28;20100;-72
2022/12/28 08:42:13;;;;;;;1999.90;999.90;;;10.10;99.90;;;;;;5051886;28;20033;-72
2022/12/28 08:44:38;;;;;;;1999.90;999.90;;;10.10;99.90;;;;;;5051841;28;20190;-72
2022/12/28 08:47:04;;;;;;;1999.90;999.90;;;10.10;99.90;;;;;;5052585;28;20060;-74
2022/12/28 08:49:29;;;;;;;1999.90;999.90;;;10.10;99.90;;;;;;5052464;28;20024;-72
2022/12/28 08:51:55;;;;;;;1999.90;999.90;;;10.00;99.90;;;;;;5051466;28;20037;-74
2022/12/28 08:54:21;;;;;;;1999.90;999.90;;;10.10;99.90;;;;;;5037063;28;20040;-73
2022/12/28 08:56:46;;;;;;;1999.90;999.90;;;10.10;99.90;;;;;;5031282;28;20037;-73
2022/12/28 08:59:14;;;;;;;1999.90;999.90;;;10.10;99.90;;;;;;5044144;28;20044;-73
2022/12/28 09:01:40;;;;;;;1999.90;999.90;;;10.10;99.90;;;;;;5051504;28;20021;-74
2022/12/28 09:04:08;;;;;;;1999.90;999.90;;;10.10;99.90;;;;;;5046541;28;20044;-73
2022/12/28 09:06:37;;;;;;;1999.90;999.90;;;9.90;99.90;;;;;;5048344;28;20061;-73
2022/12/28 09:09:05;;;;;;;1999.90;999.90;;;9.90;99.90;;;;;;5032266;28;20484;-73
2022/12/28 09:11:33;;;;;;;1999.90;999.90;;;9.90;99.90;;;;;;5031694;28;20025;-73
2022/12/28 09:13:59;;;;;;;1999.90;999.90;;;10.00;99.90;;;;;;5031798;28;20049;-73
2022/12/28 09:16:26;;;;;;;1999.90;999.90;;;10.00;99.90;;;;;;5051899;28;20404;-73
2022/12/28 09:18:58;;;;;;;1999.90;999.90;;;10.00;99.90;;;;;;5051539;28;20032;-73
2022/12/28 09:21:27;;;;;;;1999.90;999.90;;;10.00;99.90;;;;;;5051144;28;20021;-73
2022/12/28 09:23:54;;;;;;;1999.90;999.90;;;10.10;99.90;;;;;;5051287;28;20104;-73
2022/12/28 09:26:22;;;;;;;1999.90;999.90;;;10.20;99.90;;;;;;5049952;28;20082;-74
2022/12/28 09:28:53;;;;;;;1999.90;999.90;;;10.10;99.90;;;;;;5042664;28;20024;-73
2022/12/28 09:31:21;;;;;;;1999.90;999.90;;;10.10;99.90;;;;;;5040371;28;20021;-73
2022/12/28 09:34:02;;;;;;;1999.90;999.90;;;10.10;99.90;;;;;;5031798;28;20087;-72
2022/12/28 09:36:35;;;;;;;1999.90;999.90;;;10.20;99.90;;;;;;5032183;28;20025;-72
2022/12/28 09:39:07;;;;;;;1999.90;999.90;;;10.20;99.90;;;;;;5032017;28;20025;-73
2022/12/28 09:41:44;;;;;;;1999.90;999.90;;;10.20;99.90;;;;;;5033439;28;20444;-72
2022/12/28 09:44:15;;;;;;;1999.90;999.90;;;10.20;99.90;;;;;;5062619;28;20380;-73
2022/12/28 09:46:42;;;;;;;1999.90;999.90;;;10.20;99.90;;;;;;5045242;28;20025;-72
2022/12/28 09:49:16;;;;;;;1999.90;999.90;;;10.20;99.90;;;;;;5031655;28;20034;-72
2022/12/28 09:52:14;;;;;;;1999.90;999.90;;;10.20;99.90;;;;;;5031945;28;20101;-72
2022/12/28 09:54:40;;;;;;;1999.90;999.90;;;10.20;99.90;;;;;;5031264;28;20037;-72
2022/12/28 09:57:15;;;;;;;1999.90;999.90;;;10.20;99.90;;;;;;5031485;28;20065;-72
2022/12/28 09:59:41;;;;;;;1999.90;999.90;;;10.20;99.90;;;;;;5041098;28;20026;-73
2022/12/28 10:02:19;;;;;;;1999.90;999.90;;;10.30;99.90;;;;;;5040417;28;20057;-73
2022/12/28 10:04:47;;;;;;;1999.90;999.90;;;10.40;99.90;;;;;;5032209;28;20045;-73
2022/12/28 10:07:13;;;;;;;1999.90;999.90;;;10.30;99.90;;;;;;5030297;28;20111;-72
2022/12/28 10:09:39;;;;;;;1999.90;999.90;;;10.40;99.90;;;;;;5064707;28;20491;-73
2022/12/28 10:12:31;;;;;;;1999.90;999.90;;;10.40;99.90;;;;;;5050779;28;20025;-72
2022/12/28 10:14:58;;;;;;;1999.90;999.90;;;10.60;99.90;;;;;;5050434;28;20037;-73
2022/12/28 10:17:29;;;;;;;1999.90;999.90;;;10.70;99.90;;;;;;5050913;28;20025;-73
2022/12/28 10:19:57;;;;;;;1999.90;999.90;;;10.60;99.90;;;;;;5031552;28;20060;-72
2022/12/28 10:22:25;;;;;;;1999.90;999.90;;;10.70;99.90;;;;;;5043711;28;20082;-73
2022/12/28 10:24:52;;;;;;;1999.90;999.90;;;10.70;99.90;;;;;;5051137;28;20017;-74
2022/12/28 10:27:24;;;;;;;1999.90;999.90;;;10.70;99.90;;;;;;5045261;28;20523;-72
2022/12/28 10:29:51;;;;;;;1999.90;999.90;;;10.70;99.90;;;;;;5035478;28;20040;-75
2022/12/28 10:32:18;;;;;;;1999.90;999.90;;;10.70;99.90;;;;;;5049813;28;20514;-72
2022/12/28 10:35:01;;;;;;;1999.90;999.90;;;10.70;99.90;;;;;;5039471;28;20029;-72
2022/12/28 10:37:29;;;;;;;1999.90;999.90;;;10.70;99.90;;;;;;5044030;28;20029;-72
2022/12/28 10:40:15;;;;;;;1999.90;999.90;;;10.70;99.90;;;;;;5047333;28;20515;-72
2022/12/28 10:42:49;;;;;;;1999.90;999.90;;;10.70;99.90;;;;;;5049019;28;20025;-73
2022/12/28 10:45:16;;;;;;;1999.90;999.90;;;10.70;99.90;;;;;;5035675;28;20607;-72
2022/12/28 10:47:46;;;;;;;1999.90;999.90;;;10.80;99.90;;;;;;5031156;28;20113;-74
2022/12/28 10:50:39;;;;;;;1999.90;999.90;;;11.00;99.90;;;;;;5031790;28;20037;-71
2022/12/28 10:53:25;;;;;;;1999.90;999.90;;;11.00;99.90;;;;;;5040332;28;20032;-72
2022/12/28 10:56:05;;;;;;;1999.90;999.90;;;11.10;99.90;;;;;;5036381;28;20036;-73
2022/12/28 10:58:31;;;;;;;1999.90;999.90;;;11.20;99.90;;;;;;5034090;28;20021;-72
2022/12/28 11:01:09;;;;;;;1999.90;999.90;;;11.10;99.90;;;;;;5049371;28;20491;-73
2022/12/28 11:03:37;;;;;;;1999.90;999.90;;;11.10;99.90;;;;;;5052130;28;20161;-73
2022/12/28 11:06:14;;;;;;;1999.90;999.90;;;11.10;99.90;;;;;;5054356;28;20508;-72
2022/12/28 11:08:42;;;;;;;1999.90;999.90;;;11.20;99.90;;;;;;5054435;28;20506;-73
2022/12/28 11:11:20;;;;;;;1999.90;999.90;;;11.30;99.90;;;;;;5054237;28;20029;-72
2022/12/28 11:13:51;;;;;;;1999.90;999.90;;;11.40;99.90;;;;;;5054005;28;20020;-72
2022/12/28 11:16:17;;;;;;;1999.90;999.90;;;11.50;99.90;;;;;;5054418;28;20029;-72
2022/12/28 11:18:42;;;;;;;1999.90;999.90;;;11.60;99.90;;;;;;5054383;28;20021;-72
2022/12/28 11:21:12;;;;;;;1999.90;999.90;;;11.70;99.90;;;;;;5050084;28;20460;-73
2022/12/28 11:23:38;;;;;;;1999.90;999.90;;;11.80;99.90;;;;;;5033637;28;20021;-72
2022/12/28 11:26:08;;;;;;;1999.90;999.90;;;12.00;99.90;;;;;;5050144;28;20036;-72
2022/12/28 11:28:33;;;;;;;1999.90;999.90;;;11.90;99.90;;;;;;5054195;28;20035;-72
2022/12/28 11:31:00;;;;;;;1999.90;999.90;;;11.90;99.90;;;;;;5060047;28;20033;-73
2022/12/28 11:33:36;;;;;;;1999.90;999.90;;;11.90;99.90;;;;;;5053614;28;20450;-72
2022/12/28 11:36:03;;;;;;;1999.90;999.90;;;12.00;99.90;;;;;;5060787;28;20492;-74
2022/12/28 11:38:42;;;;;;;1999.90;999.90;;;12.00;99.90;;;;;;5053798;28;20039;-72
2022/12/28 11:41:38;;;;;;;1999.90;999.90;;;12.10;99.90;;;;;;5053655;28;20032;-72
2022/12/28 11:44:04;;;;;;;1999.90;999.90;;;12.10;99.90;;;;;;5035993;28;20063;-72
2022/12/28 11:46:30;;;;;;;1999.90;999.90;;;12.10;99.90;;;;;;5053016;28;20021;-73
2022/12/28 11:49:00;;;;;;;1999.90;999.90;;;12.10;99.90;;;;;;5039358;28;20560;-72
2022/12/28 11:51:28;;;;;;;1999.90;999.90;;;12.00;99.90;;;;;;5051775;28;20037;-72
2022/12/28 11:53:56;;;;;;;1999.90;999.90;;;12.00;99.90;;;;;;5053212;28;20712;-72
2022/12/28 11:56:25;;;;;;;1999.90;999.90;;;12.00;99.90;;;;;;5052381;28;20094;-72
2022/12/28 11:58:57;;;;;;;1999.90;999.90;;;12.00;99.90;;;;;;5053242;28;20025;-73
2022/12/28 12:01:28;;;;;;;1999.90;999.90;;;11.90;99.90;;;;;;5053029;28;20035;-71
2022/12/28 12:03:57;;;;;;;1999.90;999.90;;;11.90;99.90;;;;;;5049597;28;20409;-73
2022/12/28 12:06:41;;;;;;;1999.90;999.90;;;11.90;99.90;;;;;;5052772;28;20040;-72
2022/12/28 12:09:24;;;;;;;1999.90;999.90;;;11.80;99.90;;;;;;5052949;28;20032;-74
2022/12/28 12:11:58;;;;;;;1999.90;999.90;;;11.70;99.90;;;;;;5051295;28;20792;-72
2022/12/28 12:14:44;;;;;;;1999.90;999.90;;;11.80;99.90;;;;;;5052403;28;20490;-72
2022/12/28 12:17:24;;;;;;;1999.90;999.90;;;11.80;99.90;;;;;;5053600;28;20404;-71
2022/12/28 12:19:55;;;;;;;1999.90;999.90;;;11.70;99.90;;;;;;5052680;28;20395;-72
2022/12/28 12:22:28;;;;;;;1999.90;999.90;;;11.70;99.90;;;;;;5052347;28;20029;-72
2022/12/28 12:24:56;;;;;;;1999.90;999.90;;;11.70;99.90;;;;;;5052314;28;20021;-72
2022/12/28 12:27:35;;;;;;;1999.90;999.90;;;11.70;99.90;;;;;;5052229;28;20017;-72
2022/12/28 12:30:12;;;;;;;1999.90;999.90;;;11.70;99.90;;;;;;5052536;28;20029;-72
2022/12/28 12:32:43;;;;;;;1999.90;999.90;;;11.60;99.90;;;;;;5052757;28;20028;-72
2022/12/28 12:35:19;;;;;;;1999.90;999.90;;;11.60;99.90;;;;;;5052559;28;20036;-72
2022/12/28 12:37:55;;;;;;;1999.90;999.90;;;11.60;99.90;;;;;;5052311;28;20025;-72
2022/12/28 12:40:51;;;;;;;1999.90;999.90;;;11.70;99.90;;;;;;5052633;28;20021;-72